Norwegian Jewel — C6TX6 — position and weather

sailwx.info

Track history (hours):
 
Tides and Currents Weather Stations Pressure Air Temp Water Temp Dewpoint Dewpoint Depression Visibility Wind Speed Wind Dir Waves Ship Positions

Norwegian Jewel

Last reported at 2020-Jan-26 12:01 UTC. Time now 2020-Jan-28 20:09 UTC.
Position S 40°38' E 147°57'.

Type: Passenger vessel. MMSI: 311827000.

Date/timePositionNaut miles runAvg speedWind from/ knotsBaromVisibWave heightAir tempDewpointWater temp
2020-Jan-26 12:01S 40°38' E 147°57'1019.7
2020-Jan-26 11:31S 40°35' E 147°44'1020.3
2020-Jan-26 11:00S 40°35' E 147°31'2120.7
2020-Jan-26 10:00S 40°39' E 147°04'1121.4
2020-Jan-26 09:30S 40°44' E 146°51'135 3.0
2020-Jan-24 11:58S 38°42' E 148°10'2423.5
2020-Jan-24 10:57S 38°30' E 148°36'1023.0
2020-Jan-24 10:30S 38°24' E 148°47'1322.7
2020-Jan-24 09:56S 38°17' E 149°01'26311.0
2020-Jan-23 09:57S 34°18' E 151°17'31 1.6
2020-Jan-22 15:00S 34°14' E 151°55'2512.6
2020-Jan-22 13:00S 34°30' E 152°18'2512.7
2020-Jan-22 11:00S 34°47' E 152°42'3213.0
2020-Jan-22 08:30S 35°08' E 153°12'  
2020-Jan-17 11:19S 42°35' E 174°10'5720.3
2020-Jan-17 08:31S 41°41' E 174°35'3321.8
2020-Jan-17 07:00S 41°09' E 174°30'2311.6
2020-Jan-17 05:01S 41°16' E 174°00'1 1.5
2020-Jan-17 04:30S 41°17' E 173°60'0 0.0
2020-Jan-17 04:00S 41°17' E 173°60'0 0.0
2020-Jan-17 02:30S 41°17' E 173°60'0 0.0
2020-Jan-17 00:30S 41°17' E 173°60'5 0.7
2020-Jan-16 17:30S 41°14' E 174°06'714.0
2020-Jan-16 17:00S 41°10' E 174°13'3411.2
2020-Jan-16 14:00S 41°32' E 174°47'2120.7
2020-Jan-16 13:00S 41°41' E 175°12'1019.8
2020-Jan-16 12:30S 41°41' E 175°25'  
Track history (hours):
 
Tides and Currents Weather Stations Pressure Air Temp Water Temp Dewpoint Dewpoint Depression Visibility Wind Speed Wind Dir Waves Ship Positions

Norwegian Jewel

Last reported at 2020-Jan-26 12:01 UTC. Time now 2020-Jan-28 20:09 UTC.
Position S 40°38' E 147°57'.

Type: Passenger vessel. MMSI: 311827000.

Date/timePositionNaut miles runAvg speedWind from/ knotsBaromVisibWave heightAir tempDewpointWater temp
2020-Jan-26 12:01S 40°38' E 147°57'1019.7
2020-Jan-26 11:31S 40°35' E 147°44'1020.3
2020-Jan-26 11:00S 40°35' E 147°31'2120.7
2020-Jan-26 10:00S 40°39' E 147°04'1121.4
2020-Jan-26 09:30S 40°44' E 146°51'135 3.0
2020-Jan-24 11:58S 38°42' E 148°10'2423.5
2020-Jan-24 10:57S 38°30' E 148°36'1023.0
2020-Jan-24 10:30S 38°24' E 148°47'1322.7
2020-Jan-24 09:56S 38°17' E 149°01'26311.0
2020-Jan-23 09:57S 34°18' E 151°17'31 1.6
2020-Jan-22 15:00S 34°14' E 151°55'2512.6
2020-Jan-22 13:00S 34°30' E 152°18'2512.7
2020-Jan-22 11:00S 34°47' E 152°42'3213.0
2020-Jan-22 08:30S 35°08' E 153°12'  
2020-Jan-17 11:19S 42°35' E 174°10'5720.3
2020-Jan-17 08:31S 41°41' E 174°35'3321.8
2020-Jan-17 07:00S 41°09' E 174°30'2311.6
2020-Jan-17 05:01S 41°16' E 174°00'1 1.5
2020-Jan-17 04:30S 41°17' E 173°60'0 0.0
2020-Jan-17 04:00S 41°17' E 173°60'0 0.0
2020-Jan-17 02:30S 41°17' E 173°60'0 0.0
2020-Jan-17 00:30S 41°17' E 173°60'5 0.7
2020-Jan-16 17:30S 41°14' E 174°06'714.0
2020-Jan-16 17:00S 41°10' E 174°13'3411.2
2020-Jan-16 14:00S 41°32' E 174°47'2120.7
2020-Jan-16 13:00S 41°41' E 175°12'1019.8
2020-Jan-16 12:30S 41°41' E 175°25'  

Dump ship's entire track history